Time;durP1;ratioP1;P1;durP2;ratioP2;P2;SDS_P1;SDS_P2;PMS_P1;PMS_P2;Temp;Humidity;BMP_temperature;BMP_pressure;BME280_temperature;BME280_humidity;BME280_pressure;Samples;Min_cycle;Max_cycle;Signal;HPM_P1;HPM_P2
2022/10/07 00:01:52;;;;;;;3.47;2.30;;;;;;;11.65;63.57;98075.09;5046869;28;20186;-76
2022/10/07 00:04:20;;;;;;;5.30;3.03;;;;;;;11.81;62.38;98065.94;5046827;28;20265;-76
2022/10/07 00:06:47;;;;;;;6.50;3.00;;;;;;;12.12;61.58;98077.78;5049339;28;20576;-79
2022/10/07 00:09:14;;;;;;;3.93;2.87;;;;;;;12.02;61.01;98062.59;5046567;28;20637;-78
2022/10/07 00:11:41;;;;;;;6.53;3.20;;;;;;;12.08;61.19;98075.34;5047047;28;20192;-79
2022/10/07 00:14:09;;;;;;;2.90;2.60;;;;;;;11.88;61.72;98073.47;5046890;28;20185;-79
2022/10/07 00:16:39;;;;;;;4.20;2.43;;;;;;;11.77;62.18;98057.41;5046452;28;20184;-78
2022/10/07 00:19:10;;;;;;;3.50;3.03;;;;;;;11.85;62.20;98077.91;5046653;28;20219;-77
2022/10/07 00:21:39;;;;;;;3.87;2.60;;;;;;;11.83;62.39;98079.72;5046833;28;20279;-81
2022/10/07 00:24:07;;;;;;;3.93;2.70;;;;;;;11.91;61.87;98067.31;5046785;28;20584;-78
2022/10/07 00:26:35;;;;;;;2.67;2.47;;;;;;;11.80;62.19;98070.28;5046644;28;20183;-77
2022/10/07 00:29:04;;;;;;;3.83;3.00;;;;;;;11.71;62.52;98080.09;5045352;28;20253;-81
2022/10/07 00:31:34;;;;;;;11.90;3.23;;;;;;;11.61;62.82;98074.34;5049210;28;20226;-78
2022/10/07 00:34:02;;;;;;;2.70;2.37;;;;;;;11.65;62.75;98062.97;5053118;28;20196;-79
2022/10/07 00:36:33;;;;;;;4.37;2.50;;;;;;;11.58;62.68;98079.63;5045004;28;20227;-78
2022/10/07 00:39:03;;;;;;;3.80;2.63;;;;;;;11.58;63.18;98071.84;5045193;28;20195;-78
2022/10/07 00:41:36;;;;;;;4.50;2.83;;;;;;;11.48;63.31;98059.25;5046710;28;20210;-81
2022/10/07 00:44:28;;;;;;;4.17;2.60;;;;;;;11.36;63.26;98063.09;5045115;28;20636;-79
2022/10/07 00:47:16;;;;;;;3.03;2.67;;;;;;;11.33;63.93;98050.25;5046479;28;20203;-77
2022/10/07 00:49:48;;;;;;;3.10;2.40;;;;;;;11.41;64.07;98056.88;5046087;28;20252;-78
2022/10/07 00:52:19;;;;;;;4.10;2.70;;;;;;;11.61;63.52;98065.72;5046713;28;20532;-78
2022/10/07 00:54:51;;;;;;;4.27;3.03;;;;;;;11.63;62.95;98058.72;5046390;28;20186;-77
2022/10/07 00:57:24;;;;;;;5.67;2.53;;;;;;;11.50;64.03;98054.88;5046965;28;20225;-78
2022/10/07 00:59:54;;;;;;;2.97;2.20;;;;;;;11.55;63.72;98053.81;5046681;28;20671;-78
2022/10/07 01:02:26;;;;;;;3.43;2.30;;;;;;;11.45;63.37;98037.72;5049731;28;20619;-77
2022/10/07 01:04:55;;;;;;;3.07;2.43;;;;;;;11.33;64.01;98043.28;5048534;28;20190;-80
2022/10/07 01:07:22;;;;;;;3.90;2.80;;;;;;;11.09;64.84;98053.59;5049880;28;20189;-81
2022/10/07 01:09:52;;;;;;;3.23;2.33;;;;;;;10.85;65.48;98013.75;5049554;28;20233;-80
2022/10/07 01:12:47;;;;;;;3.17;2.40;;;;;;;10.75;66.40;98035.66;5049818;28;20241;-82
2022/10/07 01:15:45;;;;;;;2.83;2.20;;;;;;;10.61;66.29;98037.84;5049547;28;20217;-76
2022/10/07 01:18:22;;;;;;;2.80;2.57;;;;;;;10.43;67.26;98030.59;5048695;28;20335;-76
2022/10/07 01:21:18;;;;;;;3.07;2.40;;;;;;;10.38;67.54;98042.84;5049527;28;20190;-77
2022/10/07 01:24:03;;;;;;;3.27;2.37;;;;;;;10.48;67.19;98039.09;5047993;28;20233;-78
2022/10/07 01:26:51;;;;;;;3.70;2.70;;;;;;;10.72;66.70;98040.94;5049597;28;20910;-78
2022/10/07 01:29:36;;;;;;;2.97;2.50;;;;;;;10.65;66.07;98035.09;5048096;28;20700;-77
2022/10/07 01:32:07;;;;;;;4.50;2.67;;;;;;;10.63;66.23;98031.69;5050422;28;20773;-79
2022/10/07 01:34:35;;;;;;;3.47;2.77;;;;;;;10.88;65.70;98042.16;5049672;28;20712;-77
2022/10/07 01:37:05;;;;;;;2.77;2.43;;;;;;;11.03;66.18;98040.81;5048038;28;20579;-79
2022/10/07 01:39:55;;;;;;;2.90;2.33;;;;;;;11.12;65.40;98044.00;5047859;28;20194;-76
2022/10/07 01:42:25;;;;;;;4.47;2.80;;;;;;;11.13;64.85;98037.91;5049401;28;20200;-76
2022/10/07 01:44:55;;;;;;;7.53;2.90;;;;;;;10.96;65.29;98037.59;5047869;28;20183;-77
2022/10/07 01:47:24;;;;;;;3.40;2.93;;;;;;;10.92;65.44;98040.34;5049086;28;20749;-77
2022/10/07 01:49:51;;;;;;;2.87;2.50;;;;;;;10.82;66.98;98036.34;5048950;28;20287;-77
2022/10/07 01:52:34;;;;;;;3.50;2.47;;;;;;;10.87;65.66;98044.78;5047637;28;20185;-78
2022/10/07 01:55:23;;;;;;;5.10;3.33;;;;;;;10.71;65.92;98044.44;5048143;28;20193;-78
2022/10/07 01:58:14;;;;;;;2.97;2.67;;;;;;;10.82;66.52;98044.94;5048011;28;20191;-78
2022/10/07 02:00:47;;;;;;;4.03;3.03;;;;;;;11.06;64.99;98048.53;5032395;28;20410;-77
2022/10/07 02:03:49;;;;;;;3.50;2.40;;;;;;;10.71;65.61;98039.25;5048977;28;20881;-81
2022/10/07 02:06:31;;;;;;;3.40;2.60;;;;;;;10.65;66.00;98042.03;5048283;28;20209;-81
2022/10/07 02:09:06;;;;;;;3.37;2.70;;;;;;;10.48;65.92;98044.25;5047613;28;20233;-78
2022/10/07 02:11:41;;;;;;;4.03;2.30;;;;;;;10.55;66.23;98041.44;5051110;28;20252;-77
2022/10/07 02:14:18;;;;;;;3.63;2.83;;;;;;;10.61;65.91;98041.25;5047394;28;20178;-76
2022/10/07 02:16:48;;;;;;;2.57;2.30;;;;;;;10.52;66.40;98038.09;5046747;28;20673;-77
2022/10/07 02:19:27;;;;;;;2.60;2.40;;;;;;;10.64;66.04;98042.91;5047655;28;20906;-77
2022/10/07 02:21:56;;;;;;;3.87;2.83;;;;;;;10.62;65.97;98036.94;5049389;28;20190;-77
2022/10/07 02:24:28;;;;;;;3.50;2.30;;;;;;;10.72;66.10;98035.75;5047160;28;20187;-77
2022/10/07 02:27:00;;;;;;;3.17;2.67;;;;;;;10.88;64.76;98042.16;5047350;28;20189;-77
2022/10/07 02:29:31;;;;;;;3.07;2.33;;;;;;;11.03;64.80;98038.22;5047043;28;20229;-79
2022/10/07 02:32:04;;;;;;;3.70;2.70;;;;;;;11.18;64.32;98033.44;5046789;28;20199;-79
2022/10/07 02:34:33;;;;;;;3.27;2.50;;;;;;;11.20;64.30;98023.84;5036982;28;20194;-77
2022/10/07 02:37:10;;;;;;;5.53;2.40;;;;;;;11.37;63.36;98037.09;5047513;28;20272;-77
2022/10/07 02:39:37;;;;;;;3.43;2.43;;;;;;;11.28;63.74;98033.97;5036678;28;20190;-80
2022/10/07 02:42:34;;;;;;;4.13;2.70;;;;;;;11.20;64.08;98030.78;5046320;28;20186;-81
2022/10/07 02:45:15;;;;;;;3.70;2.30;;;;;;;11.12;64.09;98037.97;5030089;28;20195;-77
2022/10/07 02:47:51;;;;;;;3.50;3.20;;;;;;;10.50;66.46;98030.38;5046955;28;20182;-76
2022/10/07 02:50:23;;;;;;;2.97;2.67;;;;;;;10.55;66.29;98044.03;5046628;28;20225;-77
2022/10/07 02:52:54;;;;;;;8.33;3.00;;;;;;;10.37;66.90;98043.72;5062984;28;20182;-77
2022/10/07 02:55:25;;;;;;;3.10;2.40;;;;;;;10.15;67.65;98042.63;5063505;28;20217;-82
2022/10/07 02:57:57;;;;;;;4.00;2.70;;;;;;;10.32;67.27;98045.59;5044055;28;20190;-77
2022/10/07 03:00:31;;;;;;;2.90;2.60;;;;;;;10.42;66.83;98034.09;5027470;28;20731;-77
2022/10/07 03:03:01;;;;;;;6.00;2.90;;;;;;;10.59;66.51;98044.81;5026958;28;20209;-79
2022/10/07 03:05:42;;;;;;;3.50;2.53;;;;;;;10.56;66.01;98029.34;5037590;28;20197;-75
2022/10/07 03:08:10;;;;;;;2.73;2.53;;;;;;;10.41;66.40;98047.91;5047461;28;20231;-77
2022/10/07 03:10:40;;;;;;;3.83;2.93;;;;;;;9.98;67.66;98035.31;5047645;28;20193;-77
2022/10/07 03:13:09;;;;;;;4.40;3.00;;;;;;;9.80;69.14;98031.50;5030061;28;20692;-77
2022/10/07 03:15:39;;;;;;;5.13;3.77;;;;;;;9.92;68.69;98042.38;5046165;28;20193;-83
2022/10/07 03:18:24;;;;;;;3.67;2.90;;;;;;;9.77;69.27;98046.22;5045974;28;20182;-77
2022/10/07 03:20:59;;;;;;;4.37;2.83;;;;;;;10.05;68.47;98043.75;5062468;28;20634;-77
2022/10/07 03:23:28;;;;;;;2.83;2.63;;;;;;;10.30;67.95;98044.78;5026912;28;20336;-78
2022/10/07 03:25:57;;;;;;;4.83;2.60;;;;;;;10.46;66.72;98036.53;5027590;28;20191;-76
2022/10/07 03:28:26;;;;;;;4.77;3.33;;;;;;;10.50;66.87;98042.47;5026119;28;20228;-77
2022/10/07 03:31:03;;;;;;;3.13;2.70;;;;;;;10.63;66.05;98042.06;5027581;28;20179;-79
2022/10/07 03:33:30;;;;;;;5.90;3.27;;;;;;;10.41;65.99;98035.81;5026015;28;20682;-82
2022/10/07 03:35:57;;;;;;;8.03;3.50;;;;;;;10.41;66.18;98047.91;5025855;28;20186;-75
2022/10/07 03:38:24;;;;;;;6.17;3.63;;;;;;;10.43;66.29;98048.72;5025902;28;20187;-73
2022/10/07 03:40:51;;;;;;;4.50;3.30;;;;;;;10.20;66.66;98043.38;5025718;28;20190;-74
2022/10/07 03:43:18;;;;;;;4.63;3.43;;;;;;;10.37;66.89;98061.84;5009321;28;20573;-76
2022/10/07 03:45:49;;;;;;;5.83;3.83;;;;;;;10.18;66.43;98039.97;5025792;28;20194;-77
2022/10/07 03:48:17;;;;;;;7.53;4.50;;;;;;;10.14;67.33;98039.19;5025536;28;20194;-75
2022/10/07 03:50:48;;;;;;;3.43;3.10;;;;;;;10.36;67.29;98050.66;5026741;28;20225;-76
2022/10/07 03:53:15;;;;;;;7.43;3.63;;;;;;;10.53;66.97;98057.94;5025645;28;20297;-77
2022/10/07 03:55:43;;;;;;;7.43;3.80;;;;;;;10.41;66.29;98048.75;5032763;28;20291;-78
2022/10/07 03:58:11;;;;;;;8.73;3.67;;;;;;;10.55;66.29;98056.16;5046514;28;20285;-78
2022/10/07 04:00:40;;;;;;;7.40;3.83;;;;;;;10.60;66.49;98054.25;5045293;28;20178;-76
2022/10/07 04:03:08;;;;;;;5.37;3.70;;;;;;;10.57;66.36;98055.19;5045337;28;20187;-77
2022/10/07 04:05:36;;;;;;;6.93;3.70;;;;;;;10.57;65.96;98044.00;5047272;28;20186;-78
2022/10/07 04:08:03;;;;;;;4.43;3.97;;;;;;;10.47;66.13;98053.75;5045907;28;20252;-78
2022/10/07 04:10:32;;;;;;;8.53;5.50;;;;;;;10.45;66.70;98054.69;5028791;28;20213;-80
2022/10/07 04:12:59;;;;;;;9.97;6.73;;;;;;;10.47;66.50;98040.81;5028881;28;20216;-80
2022/10/07 04:15:26;;;;;;;12.10;5.73;;;;;;;10.56;66.69;98044.88;5045961;28;20181;-80
2022/10/07 04:17:58;;;;;;;10.60;5.40;;;;;;;10.66;66.54;98051.47;5046732;28;20220;-81
2022/10/07 04:20:28;;;;;;;13.37;5.10;;;;;;;10.47;66.13;97999.38;5046474;28;20568;-82
2022/10/07 04:22:58;;;;;;;10.67;5.50;;;;;;;10.82;66.03;98055.28;5047214;28;20240;-78
2022/10/07 04:25:34;;;;;;;9.87;6.53;;;;;;;10.57;65.97;98056.94;5045525;28;20485;-78
2022/10/07 04:28:14;;;;;;;10.23;5.60;;;;;;;10.38;66.48;98042.84;5046584;28;20205;-79
2022/10/07 04:30:43;;;;;;;9.50;5.03;;;;;;;10.26;67.00;98038.84;5045650;28;20218;-78
2022/10/07 04:33:12;;;;;;;8.50;5.10;;;;;;;9.79;68.66;98031.50;5047499;28;20273;-79
2022/10/07 04:35:40;;;;;;;5.67;4.67;;;;;;;9.80;69.12;98034.06;5048825;28;20966;-79
2022/10/07 04:38:09;;;;;;;7.27;4.13;;;;;;;9.90;69.65;98050.19;5048855;28;20213;-80
2022/10/07 04:40:40;;;;;;;6.70;4.30;;;;;;;9.99;69.11;98028.41;5048933;28;20258;-79
2022/10/07 04:43:18;;;;;;;8.60;5.03;;;;;;;10.37;68.13;98049.75;5048846;28;20257;-80
2022/10/07 04:45:53;;;;;;;14.67;5.70;;;;;;;10.53;68.09;98038.03;5048694;28;20212;-78
2022/10/07 04:48:22;;;;;;;8.03;4.53;;;;;;;10.42;67.64;98039.25;5049466;28;20222;-80
2022/10/07 04:50:51;;;;;;;10.07;4.57;;;;;;;10.29;68.01;98037.91;5050817;28;20253;-80
2022/10/07 04:53:20;;;;;;;7.73;4.97;;;;;;;10.43;68.11;98041.78;5048648;28;20186;-78
2022/10/07 04:55:50;;;;;;;15.03;6.40;;;;;;;10.60;68.11;98036.13;5048870;28;20224;-80
2022/10/07 04:58:19;;;;;;;5.53;4.07;;;;;;;10.80;66.63;98045.91;5048641;28;20197;-79
2022/10/07 05:00:49;;;;;;;18.77;11.30;;;;;;;10.89;67.05;98038.69;5050360;28;21039;-78
2022/10/07 05:03:21;;;;;;;7.30;4.17;;;;;;;11.00;66.35;98041.78;5017789;28;20239;-79
2022/10/07 05:05:50;;;;;;;7.87;4.27;;;;;;;11.27;65.03;98046.06;5034386;28;20247;-80
2022/10/07 05:08:23;;;;;;;8.90;4.37;;;;;;;10.99;65.78;98055.63;5049801;28;20227;-79
2022/10/07 05:10:55;;;;;;;8.60;4.37;;;;;;;11.00;66.64;98049.56;5049617;28;20221;-78
2022/10/07 05:13:25;;;;;;;6.57;4.53;;;;;;;11.29;65.78;98062.44;5050425;28;20290;-79
2022/10/07 05:15:59;;;;;;;5.13;3.93;;;;;;;11.50;65.10;98060.06;5050601;28;20214;-78
2022/10/07 05:18:28;;;;;;;6.70;4.23;;;;;;;11.67;64.00;98052.56;5051565;28;20727;-78
2022/10/07 05:21:06;;;;;;;4.20;3.80;;;;;;;11.69;63.88;98074.13;5053915;28;20282;-78
2022/10/07 05:23:38;;;;;;;4.57;3.93;;;;;;;11.38;65.19;98069.06;5054019;28;20187;-78
2022/10/07 05:26:09;;;;;;;9.67;5.47;;;;;;;11.39;65.95;98074.22;5054497;28;20193;-77
2022/10/07 05:28:43;;;;;;;7.47;5.00;;;;;;;11.71;64.23;98067.13;5053191;28;20277;-78
2022/10/07 05:31:16;;;;;;;5.57;4.03;;;;;;;11.75;63.70;98058.34;5057407;28;20194;-79
2022/10/07 05:33:48;;;;;;;7.27;4.20;;;;;;;11.82;63.65;98068.50;5055439;28;20208;-78
2022/10/07 05:36:18;;;;;;;7.73;3.80;;;;;;;11.82;63.71;98052.06;5053676;28;20218;-78
2022/10/07 05:38:47;;;;;;;4.13;3.60;;;;;;;11.59;64.34;98070.97;5053528;28;20565;-77
2022/10/07 05:41:14;;;;;;;10.67;4.47;;;;;;;11.72;64.96;98068.84;5054105;28;20596;-77
2022/10/07 05:43:47;;;;;;;7.03;4.60;;;;;;;12.06;64.12;98062.44;5055541;28;20273;-79
2022/10/07 05:46:19;;;;;;;5.47;3.60;;;;;;;12.12;62.80;98054.44;5070103;28;20179;-78
2022/10/07 05:48:52;;;;;;;5.33;4.43;;;;;;;12.57;62.55;98075.28;5054575;28;20269;-78
2022/10/07 05:51:25;;;;;;;6.97;4.20;;;;;;;12.80;61.67;98064.00;5054853;28;20199;-79
2022/10/07 05:53:55;;;;;;;7.70;4.07;;;;;;;13.06;61.25;98069.94;5055660;28;20572;-78
2022/10/07 05:56:29;;;;;;;8.37;4.03;;;;;;;13.12;60.94;98048.06;5039023;28;20202;-84
2022/10/07 05:58:59;;;;;;;7.33;4.20;;;;;;;13.48;60.12;98071.72;5058205;28;20265;-77
2022/10/07 06:01:28;;;;;;;9.63;4.10;;;;;;;13.42;60.16;98071.97;5054092;28;20516;-79
2022/10/07 06:03:58;;;;;;;4.83;4.03;;;;;;;13.36;61.07;98072.22;5054618;28;20620;-79
2022/10/07 06:06:30;;;;;;;7.80;5.37;;;;;;;13.44;60.80;98064.97;5054822;28;20291;-77
2022/10/07 06:14:38;;;;;;;7.67;4.40;;;;;;;14.00;59.59;98068.66;5052527;28;20967;-78
2022/10/07 06:17:10;;;;;;;9.43;5.13;;;;;;;14.31;59.03;98069.03;5051717;28;20208;-78
2022/10/07 06:19:41;;;;;;;11.17;5.10;;;;;;;14.39;58.09;98051.31;5053201;28;20705;-78
2022/10/07 06:22:08;;;;;;;13.00;5.37;;;;;;;14.51;57.60;98027.28;5054937;28;20185;-78
2022/10/07 06:24:42;;;;;;;14.57;5.60;;;;;;;14.91;57.34;98046.31;5024993;28;20200;-80
2022/10/07 06:27:11;;;;;;;13.20;5.43;;;;;;;15.06;57.68;98041.22;5051783;28;20204;-78
2022/10/07 06:29:39;;;;;;;16.97;9.03;;;;;;;15.37;56.77;98048.44;5052624;28;20226;-80
2022/10/07 06:32:07;;;;;;;15.13;5.63;;;;;;;15.56;56.22;98045.78;5053125;28;20201;-81
2022/10/07 06:34:35;;;;;;;14.27;7.53;;;;;;;15.88;55.35;98058.94;5049102;28;20261;-82
2022/10/07 06:37:05;;;;;;;14.57;6.53;;;;;;;16.00;54.75;98044.38;5048423;28;20653;-80
2022/10/07 06:39:33;;;;;;;12.40;4.63;;;;;;;16.43;54.02;98056.06;5047899;28;20227;-79
2022/10/07 06:42:01;;;;;;;15.47;4.90;;;;;;;16.60;53.91;98069.97;5047764;28;20665;-79
2022/10/07 06:44:38;;;;;;;17.23;7.00;;;;;;;16.64;53.60;98057.56;5047902;28;20203;-79
2022/10/07 06:47:08;;;;;;;12.23;4.63;;;;;;;16.91;52.40;98071.78;5047602;28;20243;-79
2022/10/07 06:49:40;;;;;;;7.33;3.50;;;;;;;17.13;51.03;98064.44;5049419;28;20209;-81
2022/10/07 06:52:11;;;;;;;5.83;3.33;;;;;;;17.19;50.48;98042.31;5031365;28;20244;-78
2022/10/07 06:54:39;;;;;;;5.00;3.00;;;;;;;17.44;50.58;98064.41;5049895;28;20178;-80
2022/10/07 06:57:07;;;;;;;3.63;3.17;;;;;;;17.59;49.31;98066.19;5049726;28;20205;-80
2022/10/07 06:59:55;;;;;;;9.50;3.13;;;;;;;17.67;49.15;98043.00;5035577;28;20249;-82
2022/10/07 07:02:24;;;;;;;3.07;2.40;;;;;;;17.70;48.45;98053.28;5049319;28;20556;-81
2022/10/07 07:04:57;;;;;;;3.23;2.67;;;;;;;17.60;48.70;98025.94;5049408;28;20193;-78
2022/10/07 07:07:39;;;;;;;3.17;2.30;;;;;;;17.80;48.21;98054.44;5050058;28;20886;-79
2022/10/07 07:10:08;;;;;;;4.63;2.50;;;;;;;17.72;48.15;98059.28;5030893;28;20234;-79
2022/10/07 07:12:39;;;;;;;4.97;2.80;;;;;;;17.92;47.53;98055.53;5047665;28;20189;-81
2022/10/07 07:15:08;;;;;;;4.97;2.50;;;;;;;17.99;47.14;98056.00;5047855;28;20198;-79
2022/10/07 07:17:37;;;;;;;3.27;2.70;;;;;;;18.17;47.20;98070.63;5047043;28;20248;-80
2022/10/07 07:20:05;;;;;;;3.07;2.47;;;;;;;18.16;46.28;98053.19;5047298;28;20272;-81
2022/10/07 07:22:32;;;;;;;3.77;2.50;;;;;;;18.16;46.06;98061.94;5048399;28;20190;-81
2022/10/07 07:24:59;;;;;;;3.63;2.90;;;;;;;18.15;45.97;98054.16;5047421;28;20192;-80
2022/10/07 07:27:29;;;;;;;3.13;2.33;;;;;;;18.32;45.68;98061.88;5048756;28;20202;-81
2022/10/07 07:29:57;;;;;;;4.33;2.33;;;;;;;18.36;45.35;98066.81;5048257;28;20223;-81
2022/10/07 07:32:26;;;;;;;6.93;2.40;;;;;;;18.24;45.45;98045.72;5051192;28;20557;-78
2022/10/07 07:34:55;;;;;;;4.63;2.70;;;;;;;18.37;45.28;98068.50;5049521;28;20227;-79
2022/10/07 07:37:23;;;;;;;3.43;2.30;;;;;;;18.10;44.97;98016.88;5051351;28;20254;-79
2022/10/07 07:39:55;;;;;;;5.03;2.37;;;;;;;18.45;44.49;98054.94;5014913;28;20189;-80
2022/10/07 07:42:24;;;;;;;5.00;2.67;;;;;;;18.46;44.27;98060.13;5050418;28;20198;-81
2022/10/07 07:44:51;;;;;;;5.50;3.37;;;;;;;18.55;44.49;98050.81;5065437;28;20225;-80
2022/10/07 07:47:20;;;;;;;3.60;2.10;;;;;;;18.50;44.44;98060.78;5047690;28;20195;-81
2022/10/07 07:49:49;;;;;;;6.97;3.00;;;;;;;18.58;44.35;98053.28;5045627;28;20408;-78
2022/10/07 07:52:24;;;;;;;4.43;2.30;;;;;;;18.62;43.41;98049.53;5047556;28;20286;-80
2022/10/07 07:54:56;;;;;;;3.23;1.93;;;;;;;18.52;43.29;98045.78;5058113;28;20199;-79
2022/10/07 07:57:26;;;;;;;3.67;2.30;;;;;;;18.36;42.67;98008.28;5061596;28;20560;-78
2022/10/07 07:59:55;;;;;;;5.73;2.37;;;;;;;18.67;43.06;98056.16;5055368;28;20193;-82
2022/10/07 08:02:22;;;;;;;4.90;2.37;;;;;;;18.57;42.92;98017.47;5053188;28;20276;-78
2022/10/07 08:04:52;;;;;;;4.80;2.07;;;;;;;18.80;42.44;98048.38;5053639;28;20196;-79
2022/10/07 08:07:21;;;;;;;3.50;2.00;;;;;;;18.81;42.63;98042.19;5052429;28;20520;-79
2022/10/07 08:09:50;;;;;;;5.53;2.73;;;;;;;18.93;42.38;98051.06;5054671;28;21015;-80
2022/10/07 08:12:19;;;;;;;4.13;2.10;;;;;;;18.81;43.06;98042.19;5057608;28;20257;-81
2022/10/07 08:14:49;;;;;;;4.37;2.07;;;;;;;18.74;42.63;98061.88;5041734;28;20199;-79
2022/10/07 08:17:16;;;;;;;7.10;2.50;;;;;;;18.90;42.66;98046.84;5057252;28;20213;-79
2022/10/07 08:19:43;;;;;;;3.90;2.40;;;;;;;18.93;41.96;98051.06;5057128;28;20237;-79
2022/10/07 08:22:16;;;;;;;3.07;2.13;;;;;;;18.95;41.35;98047.41;5062287;28;20258;-82
2022/10/07 08:24:45;;;;;;;5.30;2.87;;;;;;;18.93;41.94;98014.31;5063511;28;20300;-79
2022/10/07 08:27:14;;;;;;;3.97;2.30;;;;;;;19.08;41.64;98044.88;5056158;28;20197;-79
2022/10/07 08:29:42;;;;;;;3.60;2.10;;;;;;;19.06;41.96;98041.50;5054916;28;20222;-79
2022/10/07 08:32:09;;;;;;;6.83;2.60;;;;;;;18.99;42.33;98046.28;5057569;28;20214;-79
2022/10/07 08:34:37;;;;;;;3.80;2.53;;;;;;;19.08;41.89;98040.44;5055716;28;20186;-78
2022/10/07 08:37:05;;;;;;;5.73;2.93;;;;;;;19.14;41.49;98039.22;5057168;28;20240;-77
2022/10/07 08:39:35;;;;;;;3.60;2.50;;;;;;;19.41;41.05;98038.28;5060360;28;20188;-81
2022/10/07 08:42:29;;;;;;;4.57;2.20;;;;;;;19.42;39.92;98024.22;5061701;28;20197;-80
2022/10/07 08:44:56;;;;;;;2.20;1.63;;;;;;;19.47;40.37;98037.88;5056323;28;20205;-78
2022/10/07 08:47:36;;;;;;;3.27;1.70;;;;;;;19.48;40.63;98036.97;5058875;28;20201;-79
2022/10/07 08:50:13;;;;;;;5.40;2.73;;;;;;;19.51;40.44;98035.94;5056798;28;20242;-79
2022/10/07 08:52:50;;;;;;;5.73;2.23;;;;;;;19.69;40.05;98025.97;5055771;28;20195;-80
2022/10/07 08:55:37;;;;;;;2.63;2.17;;;;;;;19.78;38.98;98030.63;5055242;28;20504;-79
2022/10/07 08:58:13;;;;;;;4.80;2.33;;;;;;;19.69;39.81;98023.34;5053658;28;20218;-80
2022/10/07 09:00:52;;;;;;;4.20;2.17;;;;;;;19.71;39.33;98029.34;5049231;28;20200;-82
2022/10/07 09:03:50;;;;;;;3.97;2.17;;;;;;;19.75;39.13;98029.03;5047874;28;20249;-78
2022/10/07 09:06:28;;;;;;;3.77;2.67;;;;;;;19.81;39.16;98014.63;5049311;28;20201;-78
2022/10/07 09:09:05;;;;;;;5.17;2.40;;;;;;;19.86;38.64;98015.19;5048857;28;20247;-78
2022/10/07 09:11:34;;;;;;;4.63;2.10;;;;;;;19.90;38.57;98003.50;5048786;28;20220;-79
2022/10/07 09:14:23;;;;;;;2.80;2.07;;;;;;;19.94;38.10;98000.56;5048806;28;20193;-78
2022/10/07 09:16:53;;;;;;;5.27;2.53;;;;;;;19.89;37.84;97978.16;5049047;28;20275;-80
2022/10/07 09:19:37;;;;;;;2.30;2.10;;;;;;;20.02;38.25;98014.03;5048720;28;20251;-79
2022/10/07 09:22:41;;;;;;;4.80;2.00;;;;;;;19.94;37.89;97989.22;5047322;28;20220;-79
2022/10/07 09:25:11;;;;;;;3.20;1.70;;;;;;;20.12;38.19;98003.72;4986641;28;20201;-81
2022/10/07 09:27:38;;;;;;;6.13;3.00;;;;;;;20.06;38.65;97983.09;5038758;28;20212;-80
2022/10/07 09:30:12;;;;;;;3.50;2.20;;;;;;;20.25;38.62;98009.88;5048902;28;20213;-78
2022/10/07 09:32:42;;;;;;;3.47;2.47;;;;;;;19.98;38.93;97970.50;5050432;28;20668;-79
2022/10/07 09:35:30;;;;;;;4.60;2.03;;;;;;;19.97;38.93;97997.72;5049114;28;20265;-79
2022/10/07 09:38:08;;;;;;;3.30;2.10;;;;;;;20.00;39.41;98001.94;5048554;28;20188;-79
2022/10/07 09:41:14;;;;;;;4.83;2.20;;;;;;;20.01;39.36;97993.13;5048115;28;20193;-79
2022/10/07 09:43:29;;;;;;;4.47;2.07;;;;;;;19.93;39.24;97984.88;5048097;28;20202;-80
2022/10/07 09:45:57;;;;;;;4.17;2.43;;;;;;;19.91;39.03;97974.47;5046951;28;20684;-79
2022/10/07 09:48:27;;;;;;;6.30;1.87;;;;;;;19.88;37.99;97958.91;5048173;28;20193;-78
2022/10/07 09:51:16;;;;;;;2.70;2.23;;;;;;;19.98;38.38;97990.69;5047845;28;20611;-78
2022/10/07 09:54:01;;;;;;;7.70;2.97;;;;;;;20.20;38.26;97973.34;5048118;28;20293;-79
2022/10/07 09:56:36;;;;;;;6.63;1.83;;;;;;;20.36;37.74;97981.00;5046360;28;20284;-80
2022/10/07 09:59:23;;;;;;;3.20;1.80;;;;;;;20.37;37.30;97969.53;5047449;28;20195;-80
2022/10/07 10:02:16;;;;;;;5.57;1.80;;;;;;;20.31;38.02;97969.97;5048268;28;20285;-79
2022/10/07 10:04:51;;;;;;;2.87;2.00;;;;;;;20.47;37.28;97957.41;5048004;28;20198;-78
2022/10/07 10:07:38;;;;;;;3.57;2.30;;;;;;;20.70;36.92;97959.25;5046946;28;20188;-79
2022/10/07 10:10:17;;;;;;;4.30;2.27;;;;;;;20.50;37.76;97961.63;5046664;28;20285;-80
2022/10/07 10:12:46;;;;;;;3.87;2.10;;;;;;;20.47;37.54;97925.84;5046014;28;20650;-79
2022/10/07 10:15:35;;;;;;;7.07;2.93;;;;;;;20.78;37.42;97951.66;5047876;28;20193;-78
2022/10/07 10:18:24;;;;;;;4.17;2.00;;;;;;;20.74;37.30;97921.22;5045936;28;20288;-78
2022/10/07 10:20:51;;;;;;;7.70;4.53;;;;;;;20.98;36.96;97943.13;5047241;28;20200;-79
2022/10/07 10:23:29;;;;;;;4.37;2.40;;;;;;;21.08;37.00;97937.25;5047479;28;20805;-79
2022/10/07 10:29:18;;;;;;;23.73;2.33;;;;;;;20.60;37.51;97926.66;5047902;28;20194;-79
2022/10/07 10:31:55;;;;;;;4.57;2.50;;;;;;;20.84;37.03;97927.50;5050595;28;20218;-80
2022/10/07 10:34:49;;;;;;;4.47;2.03;;;;;;;20.95;36.97;97924.09;5047605;28;20194;-81
2022/10/07 10:37:56;;;;;;;2.97;2.00;;;;;;;21.14;36.61;97915.72;5047016;28;20197;-80
2022/10/07 10:41:07;;;;;;;2.13;1.63;;;;;;;21.03;36.66;97901.53;5047013;28;20194;-80
2022/10/07 10:43:44;;;;;;;4.53;1.97;;;;;;;21.01;37.13;97906.06;5045652;28;20190;-80
2022/10/07 10:46:32;;;;;;;5.50;2.23;;;;;;;21.08;36.71;97898.56;5047342;28;20280;-80
2022/10/07 10:49:18;;;;;;;6.80;2.70;;;;;;;21.21;36.58;97896.69;5046776;28;20197;-79
2022/10/07 10:52:03;;;;;;;2.73;2.03;;;;;;;21.08;36.09;97900.34;5046481;28;20221;-80
2022/10/07 10:55:00;;;;;;;4.67;2.40;;;;;;;21.07;36.33;97894.25;5047813;28;20665;-80
2022/10/07 10:57:30;;;;;;;2.57;2.00;;;;;;;21.03;36.68;97898.91;5046969;28;20221;-80
2022/10/07 11:00:00;;;;;;;3.80;1.90;;;;;;;21.02;36.50;97888.47;5046775;28;20190;-80
2022/10/07 11:02:35;;;;;;;2.50;2.00;;;;;;;21.13;35.88;97887.66;5046749;28;20214;-79
2022/10/07 11:05:05;;;;;;;4.60;2.47;;;;;;;21.27;35.89;97879.59;5045474;28;20703;-79
2022/10/07 11:07:38;;;;;;;4.80;2.07;;;;;;;21.15;36.11;97880.50;5045384;28;20218;-78
2022/10/07 11:10:23;;;;;;;4.77;2.10;;;;;;;21.05;36.58;97877.72;5047763;28;20236;-83
2022/10/07 11:13:00;;;;;;;3.93;2.03;;;;;;;21.14;36.32;97870.91;5048161;28;20244;-78
2022/10/07 11:15:35;;;;;;;5.40;2.37;;;;;;;21.18;36.19;97875.00;5046693;28;20185;-79
2022/10/07 11:18:14;;;;;;;3.83;2.07;;;;;;;21.21;36.16;97859.81;5047450;28;20181;-79
2022/10/07 11:20:46;;;;;;;3.73;2.10;;;;;;;21.37;36.24;97864.75;5047385;28;20185;-80
2022/10/07 11:23:25;;;;;;;3.67;2.00;;;;;;;21.34;35.45;97870.25;5046657;28;20244;-78
2022/10/07 11:26:01;;;;;;;3.60;1.87;;;;;;;21.05;35.76;97869.81;5046125;28;20186;-79
2022/10/07 11:28:32;;;;;;;5.87;2.03;;;;;;;21.16;35.67;97869.00;5046339;28;20189;-78
2022/10/07 11:31:10;;;;;;;3.27;2.43;;;;;;;21.22;35.81;97844.84;5046811;28;20213;-79
2022/10/07 11:33:59;;;;;;;4.50;2.13;;;;;;;21.48;35.99;97848.94;5048392;28;20260;-79
2022/10/07 11:36:52;;;;;;;2.50;1.87;;;;;;;21.36;35.98;97857.81;5047434;28;20273;-80
2022/10/07 11:39:20;;;;;;;2.73;1.90;;;;;;;21.34;35.95;97820.19;5046904;28;20194;-80
2022/10/07 11:42:11;;;;;;;3.00;2.03;;;;;;;21.48;35.65;97843.69;5044921;28;20199;-79
2022/10/07 11:45:15;;;;;;;4.13;2.33;;;;;;;21.51;35.17;97825.00;5043794;28;20680;-79
2022/10/07 11:47:50;;;;;;;5.00;2.23;;;;;;;21.63;35.19;97845.16;5044868;28;20220;-80
2022/10/07 11:50:30;;;;;;;3.43;2.20;;;;;;;21.64;35.49;97836.25;5042792;28;20202;-79
2022/10/07 11:53:27;;;;;;;5.23;2.10;;;;;;;21.70;35.55;97835.81;5045836;28;20240;-78
2022/10/07 11:56:00;;;;;;;3.10;1.97;;;;;;;21.60;34.99;97843.59;5046985;28;20221;-84
2022/10/07 11:58:36;;;;;;;3.37;2.20;;;;;;;21.53;35.84;97833.63;5046559;28;20190;-79
2022/10/07 12:01:27;;;;;;;2.40;2.20;;;;;;;21.58;35.72;97842.00;5046389;28;20198;-82
2022/10/07 12:04:01;;;;;;;2.90;2.07;;;;;;;21.72;35.71;97836.53;5046475;28;20674;-78
2022/10/07 12:06:28;;;;;;;2.53;2.13;;;;;;;21.75;35.05;97809.91;5046737;28;20696;-80
2022/10/07 12:08:55;;;;;;;6.13;2.33;;;;;;;21.72;33.54;97812.81;5044380;28;20701;-78
2022/10/07 12:11:23;;;;;;;2.67;2.03;;;;;;;21.57;33.44;97824.53;5045907;28;20241;-79
2022/10/07 12:13:52;;;;;;;3.30;2.17;;;;;;;21.55;33.17;97823.81;5045043;28;20196;-80
2022/10/07 12:16:22;;;;;;;3.07;2.33;;;;;;;21.56;32.20;97817.56;5044766;28;20190;-81